Time;durP1;ratioP1;P1;durP2;ratioP2;P2;SDS_P1;SDS_P2;PMS_P1;PMS_P2;Temp;Humidity;BMP_temperature;BMP_pressure;BME280_temperature;BME280_humidity;BME280_pressure;Samples;Min_cycle;Max_cycle;Signal;HPM_P1;HPM_P2
2023/03/09 00:01:18;;;;;;;144.37;28.67;;;2.70;99.90;;;;;;5027952;28;20224;-67
2023/03/09 00:03:46;;;;;;;136.37;27.23;;;2.80;99.90;;;;;;5026872;28;20255;-67
2023/03/09 00:06:16;;;;;;;136.83;28.07;;;2.80;99.90;;;;;;5028864;28;20216;-67
2023/03/09 00:08:45;;;;;;;153.20;27.70;;;2.80;99.90;;;;;;5029699;28;20229;-67
2023/03/09 00:11:13;;;;;;;164.53;29.53;;;2.80;99.90;;;;;;5027769;28;20261;-67
2023/03/09 00:13:42;;;;;;;169.30;30.73;;;2.90;99.90;;;;;;5025735;28;20719;-67
2023/03/09 00:16:15;;;;;;;170.37;32.50;;;2.80;99.90;;;;;;5025579;28;20197;-67
2023/03/09 00:18:45;;;;;;;161.00;30.57;;;2.90;99.90;;;;;;5030638;28;20225;-67
2023/03/09 00:21:34;;;;;;;170.40;29.57;;;2.90;99.90;;;;;;5029548;28;20299;-67
2023/03/09 00:24:04;;;;;;;167.63;32.13;;;2.90;99.90;;;;;;5015012;28;20253;-67
2023/03/09 00:26:38;;;;;;;175.63;31.40;;;2.90;99.90;;;;;;5012592;28;20218;-67
2023/03/09 00:29:08;;;;;;;156.20;30.13;;;2.90;99.90;;;;;;5009227;28;20630;-67
2023/03/09 00:31:36;;;;;;;158.17;31.47;;;2.90;99.90;;;;;;5006901;28;20182;-67
2023/03/09 00:34:05;;;;;;;173.97;31.40;;;2.80;99.90;;;;;;5030248;28;20206;-67
2023/03/09 00:36:33;;;;;;;155.30;31.07;;;2.80;99.90;;;;;;5027008;28;20323;-67
2023/03/09 00:39:05;;;;;;;152.77;30.43;;;2.80;99.90;;;;;;5023570;28;20642;-67
2023/03/09 00:41:34;;;;;;;175.90;32.27;;;2.70;99.90;;;;;;5023235;28;20216;-67
2023/03/09 00:44:05;;;;;;;184.03;34.53;;;2.70;99.90;;;;;;5026683;28;20221;-67
2023/03/09 00:46:35;;;;;;;186.77;33.23;;;2.70;99.90;;;;;;5020188;28;20200;-67
2023/03/09 00:49:06;;;;;;;191.10;32.37;;;2.70;99.90;;;;;;5022371;28;20949;-67
2023/03/09 00:51:36;;;;;;;182.60;34.57;;;2.70;99.90;;;;;;5022501;28;20221;-67
2023/03/09 00:54:06;;;;;;;198.67;32.70;;;2.70;99.90;;;;;;5024349;28;20222;-67
2023/03/09 00:56:35;;;;;;;177.03;31.57;;;2.70;99.90;;;;;;5017390;28;20225;-67
2023/03/09 00:59:06;;;;;;;170.40;32.17;;;2.70;99.90;;;;;;5022203;28;20279;-67
2023/03/09 01:01:35;;;;;;;188.23;33.23;;;2.80;99.90;;;;;;5022035;28;20201;-67
2023/03/09 01:04:03;;;;;;;210.77;33.10;;;2.80;99.90;;;;;;5024686;28;20205;-67
2023/03/09 01:06:32;;;;;;;174.90;31.07;;;2.70;99.90;;;;;;5021785;28;20587;-67
2023/03/09 01:09:00;;;;;;;145.30;33.27;;;2.70;99.90;;;;;;5021943;28;20915;-67
2023/03/09 01:11:29;;;;;;;163.97;33.07;;;2.70;99.90;;;;;;5017485;28;20332;-67
2023/03/09 01:13:58;;;;;;;171.00;36.03;;;2.70;99.90;;;;;;5021115;28;20225;-67
2023/03/09 01:16:26;;;;;;;193.27;35.97;;;2.60;99.90;;;;;;5021246;28;20197;-67
2023/03/09 01:18:54;;;;;;;177.50;34.27;;;2.70;99.90;;;;;;5023379;28;20320;-67
2023/03/09 01:21:23;;;;;;;204.13;34.43;;;2.70;99.90;;;;;;5024124;28;20648;-67
2023/03/09 01:23:51;;;;;;;207.87;35.97;;;2.70;99.90;;;;;;5023748;28;20257;-67
2023/03/09 01:26:19;;;;;;;222.70;38.03;;;2.70;99.90;;;;;;5021511;28;20253;-67
2023/03/09 01:28:49;;;;;;;195.07;36.70;;;2.80;99.90;;;;;;5019946;28;20225;-67
2023/03/09 01:31:17;;;;;;;207.10;36.33;;;2.80;99.90;;;;;;5022469;28;20263;-67
2023/03/09 01:33:47;;;;;;;182.27;35.57;;;2.70;99.90;;;;;;5023906;28;20224;-67
2023/03/09 01:36:17;;;;;;;195.93;37.70;;;2.70;99.90;;;;;;5023285;28;20825;-67
2023/03/09 01:38:46;;;;;;;194.80;39.13;;;2.70;99.90;;;;;;5024880;28;20275;-67
2023/03/09 01:41:16;;;;;;;231.50;38.10;;;2.60;99.90;;;;;;5013848;28;20761;-67
2023/03/09 01:43:45;;;;;;;210.37;39.33;;;2.60;99.90;;;;;;5029681;28;20282;-67
2023/03/09 01:46:49;;;;;;;240.27;38.17;;;2.60;99.90;;;;;;5027846;28;20197;-67
2023/03/09 01:49:30;;;;;;;283.53;37.70;;;2.60;99.90;;;;;;5022464;28;20221;-67
2023/03/09 01:52:05;;;;;;;253.57;37.63;;;2.70;99.90;;;;;;5021859;28;20194;-67
2023/03/09 01:54:39;;;;;;;218.37;39.40;;;2.70;99.90;;;;;;5026030;28;20291;-67
2023/03/09 01:57:14;;;;;;;236.90;36.83;;;2.70;99.90;;;;;;5026774;28;20271;-67
2023/03/09 01:59:44;;;;;;;219.40;37.13;;;2.70;99.90;;;;;;5025740;28;20272;-67
2023/03/09 02:02:16;;;;;;;217.33;36.50;;;2.70;99.90;;;;;;5023551;28;20264;-67
2023/03/09 02:04:48;;;;;;;240.50;36.67;;;2.70;99.90;;;;;;5021225;28;20225;-67
2023/03/09 02:07:19;;;;;;;206.23;35.87;;;2.70;99.90;;;;;;5019647;28;20532;-67
2023/03/09 02:09:52;;;;;;;216.20;35.70;;;2.70;99.90;;;;;;5019536;28;20253;-67
2023/03/09 02:12:22;;;;;;;212.60;34.17;;;2.70;99.90;;;;;;5019095;28;20227;-67
2023/03/09 02:14:51;;;;;;;201.43;34.67;;;2.70;99.90;;;;;;5022100;28;20236;-67
2023/03/09 02:17:23;;;;;;;216.23;34.27;;;2.70;99.90;;;;;;5022931;28;20241;-67
2023/03/09 02:20:05;;;;;;;213.13;36.60;;;2.70;99.90;;;;;;5025129;28;20315;-67
2023/03/09 02:22:37;;;;;;;202.90;34.60;;;2.70;99.90;;;;;;5026632;28;20213;-67
2023/03/09 02:25:13;;;;;;;176.30;33.90;;;2.70;99.90;;;;;;5022620;28;20221;-67
2023/03/09 02:27:43;;;;;;;197.27;31.83;;;2.70;99.90;;;;;;5027949;28;20221;-67
2023/03/09 02:30:14;;;;;;;221.67;34.53;;;2.70;99.90;;;;;;5025094;28;20229;-67
2023/03/09 02:32:42;;;;;;;207.43;33.80;;;2.70;99.90;;;;;;5020995;28;20595;-67
2023/03/09 02:35:11;;;;;;;201.60;33.37;;;2.70;99.90;;;;;;5019186;28;20275;-67
2023/03/09 02:37:41;;;;;;;196.03;34.00;;;2.80;99.90;;;;;;5009802;28;20232;-67
2023/03/09 02:40:14;;;;;;;186.27;32.40;;;2.80;99.90;;;;;;5022303;28;20754;-67
2023/03/09 02:42:45;;;;;;;192.50;32.43;;;2.80;99.90;;;;;;5024416;28;20259;-67
2023/03/09 02:45:17;;;;;;;189.80;33.53;;;2.80;99.90;;;;;;5024526;28;21102;-67
2023/03/09 02:47:46;;;;;;;160.37;32.37;;;2.80;99.90;;;;;;5021063;28;20218;-67
2023/03/09 02:50:15;;;;;;;237.57;33.43;;;2.70;99.90;;;;;;5019398;28;20694;-67
2023/03/09 02:52:43;;;;;;;165.00;32.17;;;2.70;99.90;;;;;;5019317;28;20256;-67
2023/03/09 02:55:12;;;;;;;173.30;32.53;;;2.70;99.90;;;;;;5021940;28;20750;-67
2023/03/09 02:57:41;;;;;;;161.70;30.97;;;2.60;99.90;;;;;;5003025;28;20233;-67
2023/03/09 03:00:14;;;;;;;184.40;32.97;;;2.70;99.90;;;;;;5003604;28;20223;-67
2023/03/09 03:02:43;;;;;;;145.17;30.23;;;2.60;99.90;;;;;;5003136;28;20743;-67
2023/03/09 03:05:11;;;;;;;156.73;30.27;;;2.60;99.90;;;;;;5004797;28;20226;-67
2023/03/09 03:07:39;;;;;;;158.77;28.13;;;2.60;99.90;;;;;;5007229;28;20234;-67
2023/03/09 03:10:09;;;;;;;163.13;27.97;;;2.60;99.90;;;;;;5003852;28;20263;-67
2023/03/09 03:12:37;;;;;;;150.80;28.57;;;2.60;99.90;;;;;;5021248;28;20930;-67
2023/03/09 03:15:07;;;;;;;169.40;29.60;;;2.60;99.90;;;;;;5022235;28;20272;-67
2023/03/09 03:17:37;;;;;;;162.70;29.50;;;2.60;99.90;;;;;;5017932;28;20287;-67
2023/03/09 03:20:11;;;;;;;160.40;29.43;;;2.60;99.90;;;;;;5023077;28;20231;-67
2023/03/09 03:22:40;;;;;;;168.10;29.67;;;2.60;99.90;;;;;;5019519;28;20309;-67
2023/03/09 03:25:09;;;;;;;175.97;29.77;;;2.60;99.90;;;;;;5004992;28;20190;-67
2023/03/09 03:27:37;;;;;;;171.10;29.97;;;2.60;99.90;;;;;;5001080;28;20389;-67
2023/03/09 03:30:06;;;;;;;172.27;30.50;;;2.60;99.90;;;;;;5016669;28;20225;-67
2023/03/09 03:32:34;;;;;;;167.00;28.63;;;2.60;99.90;;;;;;5021523;28;20228;-67
2023/03/09 03:35:04;;;;;;;196.73;28.83;;;2.60;99.90;;;;;;5022159;28;20243;-67
2023/03/09 03:37:35;;;;;;;178.73;30.90;;;2.60;99.90;;;;;;5024600;28;20224;-67
2023/03/09 03:40:07;;;;;;;167.83;28.10;;;2.60;99.90;;;;;;5026792;28;20285;-67
2023/03/09 03:42:39;;;;;;;148.40;27.57;;;2.60;99.90;;;;;;5023950;28;20217;-67
2023/03/09 03:45:08;;;;;;;165.70;28.77;;;2.60;99.90;;;;;;5018568;28;20714;-67
2023/03/09 03:47:37;;;;;;;165.40;27.80;;;2.60;99.90;;;;;;5027203;28;20606;-67
2023/03/09 03:50:08;;;;;;;191.53;29.47;;;2.60;99.90;;;;;;5027582;28;20571;-67
2023/03/09 03:52:36;;;;;;;165.40;29.50;;;2.60;99.90;;;;;;5027446;28;20185;-67
2023/03/09 03:55:04;;;;;;;174.70;28.90;;;2.60;99.90;;;;;;5024880;28;20233;-67
2023/03/09 03:57:33;;;;;;;178.33;27.97;;;2.60;99.90;;;;;;5023574;28;20212;-67
2023/03/09 04:00:01;;;;;;;176.20;29.27;;;2.60;99.90;;;;;;5005514;28;20280;-67
2023/03/09 04:02:29;;;;;;;139.83;27.30;;;2.50;99.90;;;;;;5024134;28;20218;-67
2023/03/09 04:04:57;;;;;;;174.50;28.30;;;2.50;99.90;;;;;;5019615;28;20618;-67
2023/03/09 04:07:27;;;;;;;166.60;29.60;;;2.60;99.90;;;;;;5019713;28;20288;-66
2023/03/09 04:09:56;;;;;;;235.37;43.20;;;2.60;99.90;;;;;;5018017;28;20205;-67
2023/03/09 04:12:24;;;;;;;286.87;42.33;;;2.60;99.90;;;;;;5025593;28;20216;-67
2023/03/09 04:14:55;;;;;;;155.40;31.30;;;2.60;99.90;;;;;;5022955;28;20213;-67
2023/03/09 04:17:23;;;;;;;178.80;28.27;;;2.60;99.90;;;;;;5026140;28;20303;-67
2023/03/09 04:19:52;;;;;;;158.87;27.50;;;2.60;99.90;;;;;;5021249;28;20241;-67
2023/03/09 04:22:20;;;;;;;169.07;25.63;;;2.60;99.90;;;;;;5019420;28;20197;-66
2023/03/09 04:24:50;;;;;;;123.83;25.43;;;2.70;99.90;;;;;;5019372;28;20673;-67
2023/03/09 04:27:18;;;;;;;133.90;24.53;;;2.70;99.90;;;;;;5021987;28;20224;-67
2023/03/09 04:29:50;;;;;;;145.30;24.73;;;2.60;99.90;;;;;;5024231;28;20260;-67
2023/03/09 04:32:18;;;;;;;127.20;23.63;;;2.60;99.90;;;;;;5022619;28;20573;-67
2023/03/09 04:34:47;;;;;;;129.23;25.47;;;2.70;99.90;;;;;;5020279;28;20304;-67
2023/03/09 04:37:15;;;;;;;127.20;25.00;;;2.60;99.90;;;;;;5025045;28;20238;-67
2023/03/09 04:39:46;;;;;;;125.87;24.30;;;2.60;99.90;;;;;;5022109;28;20735;-67
2023/03/09 04:42:15;;;;;;;143.10;24.47;;;2.60;99.90;;;;;;5023857;28;20267;-67
2023/03/09 04:44:44;;;;;;;133.17;24.20;;;2.70;99.90;;;;;;5028836;28;20232;-67
2023/03/09 04:47:13;;;;;;;124.83;22.37;;;2.70;99.90;;;;;;5027034;28;20680;-67
2023/03/09 04:49:42;;;;;;;106.77;20.30;;;2.70;99.90;;;;;;5028726;28;20232;-67
2023/03/09 04:52:12;;;;;;;104.30;21.10;;;2.60;99.90;;;;;;5023022;28;20196;-67
2023/03/09 04:54:40;;;;;;;119.23;22.07;;;2.60;99.90;;;;;;5024266;28;20727;-66
2023/03/09 04:57:08;;;;;;;113.90;22.63;;;2.60;99.90;;;;;;5022036;28;20276;-67
2023/03/09 04:59:38;;;;;;;102.27;22.50;;;2.60;99.90;;;;;;5005854;28;20280;-67
2023/03/09 05:02:07;;;;;;;112.53;23.87;;;2.50;99.90;;;;;;5022488;28;20213;-67
2023/03/09 05:04:36;;;;;;;123.00;22.07;;;2.50;99.90;;;;;;5022222;28;20751;-67
2023/03/09 05:07:04;;;;;;;125.63;23.50;;;2.50;99.90;;;;;;5018650;28;20640;-67
2023/03/09 05:09:33;;;;;;;107.17;22.10;;;2.50;99.90;;;;;;5022941;28;20252;-67
2023/03/09 05:12:01;;;;;;;122.17;22.17;;;2.60;99.90;;;;;;5024568;28;20759;-67
2023/03/09 05:14:30;;;;;;;92.30;20.40;;;2.60;99.90;;;;;;5020443;28;20221;-67
2023/03/09 05:17:00;;;;;;;123.27;23.63;;;2.70;99.90;;;;;;5009550;28;20279;-67
2023/03/09 05:19:28;;;;;;;100.50;21.47;;;2.70;99.90;;;;;;5023136;28;20228;-66
2023/03/09 05:21:56;;;;;;;113.17;22.93;;;2.70;99.90;;;;;;5022077;28;20198;-67
2023/03/09 05:24:25;;;;;;;125.83;23.63;;;2.70;99.90;;;;;;5022023;28;20743;-67
2023/03/09 05:26:53;;;;;;;129.60;23.30;;;2.60;99.90;;;;;;5022982;28;20774;-67
2023/03/09 05:29:21;;;;;;;134.73;23.93;;;2.60;99.90;;;;;;5025153;28;20227;-67
2023/03/09 05:31:49;;;;;;;124.87;22.80;;;2.60;99.90;;;;;;5025559;28;20233;-67
2023/03/09 05:34:19;;;;;;;145.97;23.53;;;2.70;99.90;;;;;;5028816;28;20236;-67
2023/03/09 05:36:47;;;;;;;141.73;24.00;;;2.70;99.90;;;;;;5004575;28;20268;-67
2023/03/09 05:39:18;;;;;;;131.67;23.67;;;2.70;99.90;;;;;;5006602;28;20238;-67
2023/03/09 05:41:46;;;;;;;115.97;24.63;;;2.70;99.90;;;;;;5017698;28;20217;-67
2023/03/09 05:44:17;;;;;;;132.63;24.53;;;2.70;99.90;;;;;;5026569;28;20218;-67
2023/03/09 05:46:46;;;;;;;134.07;25.13;;;2.70;99.90;;;;;;5022545;28;20267;-67
2023/03/09 05:49:14;;;;;;;140.40;24.13;;;2.70;99.90;;;;;;5023711;28;20239;-67
2023/03/09 05:51:44;;;;;;;120.17;23.53;;;2.70;99.90;;;;;;5021843;28;20222;-67
2023/03/09 05:54:12;;;;;;;127.23;24.83;;;2.80;99.90;;;;;;5020731;28;20697;-67
2023/03/09 05:56:40;;;;;;;151.37;25.00;;;2.70;99.90;;;;;;5024497;28;20248;-67
2023/03/09 05:59:09;;;;;;;152.27;26.63;;;2.80;99.90;;;;;;5019795;28;20629;-67
2023/03/09 06:01:37;;;;;;;159.80;27.80;;;2.80;99.90;;;;;;5018182;28;20190;-67
2023/03/09 06:04:05;;;;;;;132.43;25.70;;;2.70;99.90;;;;;;5021434;28;20201;-67
2023/03/09 06:06:33;;;;;;;129.43;25.83;;;2.70;99.90;;;;;;5023050;28;20218;-67
2023/03/09 06:09:03;;;;;;;125.63;26.93;;;2.70;99.90;;;;;;5021668;28;20233;-67
2023/03/09 06:11:31;;;;;;;130.33;26.73;;;2.60;99.90;;;;;;5025935;28;20241;-67
2023/03/09 06:14:00;;;;;;;136.57;26.03;;;2.60;99.90;;;;;;5022253;28;20275;-67
2023/03/09 06:16:28;;;;;;;137.20;25.33;;;2.50;99.90;;;;;;5019808;28;20206;-67
2023/03/09 06:18:56;;;;;;;130.47;25.60;;;2.50;99.90;;;;;;5026460;28;20239;-67
2023/03/09 06:21:24;;;;;;;151.77;25.53;;;2.50;99.90;;;;;;5022132;28;20229;-67
2023/03/09 06:23:54;;;;;;;161.70;27.50;;;2.60;99.90;;;;;;5021694;28;20217;-67
2023/03/09 06:26:25;;;;;;;171.77;27.40;;;2.60;99.90;;;;;;5024197;28;20224;-67
2023/03/09 06:28:53;;;;;;;157.97;26.43;;;2.70;99.90;;;;;;5024518;28;20332;-67
2023/03/09 06:31:22;;;;;;;170.50;25.33;;;2.70;99.90;;;;;;5018543;28;20201;-67
2023/03/09 06:33:50;;;;;;;156.57;26.23;;;2.70;99.90;;;;;;5029049;28;20269;-67
2023/03/09 06:36:19;;;;;;;141.77;25.60;;;2.70;99.90;;;;;;5022236;28;20217;-67
2023/03/09 06:38:47;;;;;;;147.40;27.80;;;2.80;99.90;;;;;;5024137;28;20270;-67
2023/03/09 06:41:15;;;;;;;137.53;26.33;;;2.80;99.90;;;;;;5027090;28;20308;-67
2023/03/09 06:43:48;;;;;;;129.03;26.80;;;2.80;99.90;;;;;;5021412;28;20308;-67
2023/03/09 06:46:16;;;;;;;129.63;25.17;;;2.80;99.90;;;;;;5019798;28;20193;-67
2023/03/09 06:48:44;;;;;;;142.57;26.10;;;2.80;99.90;;;;;;5021217;28;20228;-67
2023/03/09 06:51:13;;;;;;;125.00;26.30;;;2.80;99.90;;;;;;5023723;28;20287;-67
2023/03/09 06:53:41;;;;;;;146.87;25.80;;;2.80;99.90;;;;;;5022199;28;20900;-67
2023/03/09 06:56:10;;;;;;;127.97;27.40;;;2.80;99.90;;;;;;5025076;28;20267;-67
2023/03/09 06:58:38;;;;;;;138.27;27.27;;;2.80;99.90;;;;;;5019430;28;20204;-67
2023/03/09 07:01:10;;;;;;;151.03;28.33;;;2.70;99.90;;;;;;5024354;28;20217;-67
2023/03/09 07:03:39;;;;;;;135.67;27.10;;;2.80;99.90;;;;;;5021440;28;20224;-67
2023/03/09 07:06:08;;;;;;;150.63;28.20;;;2.80;99.90;;;;;;5021331;28;20216;-67
2023/03/09 07:08:37;;;;;;;140.90;28.13;;;2.90;99.90;;;;;;5018886;28;20222;-68
2023/03/09 07:11:05;;;;;;;162.50;28.53;;;2.90;99.90;;;;;;5023762;28;20252;-67
2023/03/09 07:13:33;;;;;;;155.07;27.77;;;2.90;99.90;;;;;;5024036;28;20307;-67
2023/03/09 07:16:03;;;;;;;139.43;27.13;;;2.90;99.90;;;;;;5024254;28;20197;-68
2023/03/09 07:18:34;;;;;;;126.27;26.97;;;3.00;99.90;;;;;;5023532;28;20232;-67
2023/03/09 07:21:04;;;;;;;154.77;28.50;;;2.90;99.90;;;;;;5027596;28;20595;-67
2023/03/09 07:23:32;;;;;;;143.63;25.60;;;2.90;99.90;;;;;;5027975;28;20741;-67
2023/03/09 07:26:01;;;;;;;146.87;29.20;;;3.00;99.90;;;;;;5028916;28;20217;-67
2023/03/09 07:28:30;;;;;;;139.83;28.07;;;3.10;99.90;;;;;;5007402;28;20275;-67
2023/03/09 07:30:58;;;;;;;139.43;28.57;;;3.20;99.90;;;;;;5010526;28;20189;-68
2023/03/09 07:33:27;;;;;;;141.37;28.23;;;3.10;99.90;;;;;;5028597;28;20707;-67
2023/03/09 07:35:56;;;;;;;150.17;30.73;;;3.10;99.90;;;;;;5026787;28;20221;-67
2023/03/09 07:38:25;;;;;;;114.43;27.90;;;3.20;99.90;;;;;;5022803;28;20632;-67
2023/03/09 07:40:53;;;;;;;167.77;33.10;;;3.20;99.90;;;;;;5022634;28;20344;-68
2023/03/09 07:43:21;;;;;;;126.10;29.60;;;3.10;99.90;;;;;;5027282;28;20243;-67
2023/03/09 07:45:49;;;;;;;132.27;28.30;;;3.10;99.90;;;;;;5026491;28;20208;-68
2023/03/09 07:48:17;;;;;;;134.23;28.50;;;3.10;99.90;;;;;;5023339;28;20282;-68
2023/03/09 07:50:46;;;;;;;134.87;29.13;;;3.20;99.90;;;;;;5024048;28;20709;-68
2023/03/09 07:53:16;;;;;;;129.30;27.23;;;3.30;99.90;;;;;;5027685;28;20274;-67
2023/03/09 07:55:44;;;;;;;128.13;27.47;;;3.30;99.90;;;;;;5024430;28;20248;-68
2023/03/09 07:58:12;;;;;;;136.87;27.60;;;3.40;99.90;;;;;;5027731;28;20343;-68
2023/03/09 08:00:40;;;;;;;134.87;29.27;;;3.40;99.90;;;;;;5004474;28;20257;-68
2023/03/09 08:03:09;;;;;;;121.27;28.40;;;3.50;99.90;;;;;;5026068;28;20622;-68
2023/03/09 08:05:37;;;;;;;117.90;28.57;;;3.50;99.90;;;;;;5030012;28;20300;-68
2023/03/09 08:08:06;;;;;;;129.47;29.53;;;3.40;99.90;;;;;;5023566;28;20216;-67
2023/03/09 08:10:37;;;;;;;113.93;28.33;;;3.30;99.90;;;;;;5025049;28;20225;-67
2023/03/09 08:13:05;;;;;;;134.47;28.67;;;3.30;99.90;;;;;;5025856;28;20249;-68
2023/03/09 08:15:33;;;;;;;111.30;27.73;;;3.30;99.90;;;;;;5038556;28;20265;-68
2023/03/09 08:18:01;;;;;;;121.73;28.80;;;3.40;99.90;;;;;;5024192;28;20836;-68
2023/03/09 08:20:30;;;;;;;141.83;30.80;;;3.50;99.90;;;;;;5027173;28;20221;-67
2023/03/09 08:22:58;;;;;;;140.47;32.07;;;3.40;99.90;;;;;;5025007;28;20213;-68
2023/03/09 08:25:27;;;;;;;135.43;32.40;;;3.50;99.90;;;;;;5033745;28;20193;-67
2023/03/09 08:27:57;;;;;;;134.40;30.17;;;3.50;99.90;;;;;;5032879;28;20185;-68
2023/03/09 08:30:26;;;;;;;142.60;30.37;;;3.50;99.90;;;;;;5025373;28;20240;-68
2023/03/09 08:32:55;;;;;;;135.80;31.83;;;3.50;99.90;;;;;;5026530;28;20240;-68
2023/03/09 08:35:28;;;;;;;157.27;32.90;;;3.60;99.90;;;;;;5030055;28;20217;-68
2023/03/09 08:37:56;;;;;;;125.77;30.40;;;3.60;99.90;;;;;;5031869;28;20638;-68
2023/03/09 08:40:25;;;;;;;124.40;28.63;;;3.70;99.90;;;;;;5032184;28;20636;-66
2023/03/09 08:42:53;;;;;;;129.13;30.03;;;3.70;99.90;;;;;;5028007;28;20688;-68
2023/03/09 08:45:23;;;;;;;127.70;30.63;;;3.70;99.90;;;;;;5026394;28;20726;-68
2023/03/09 08:47:51;;;;;;;136.47;30.70;;;3.70;99.90;;;;;;5030851;28;20209;-68
2023/03/09 08:50:20;;;;;;;135.50;30.93;;;3.80;99.90;;;;;;5030745;28;20612;-67
2023/03/09 08:52:48;;;;;;;133.47;30.93;;;3.80;99.90;;;;;;5025776;28;20225;-67
2023/03/09 08:55:17;;;;;;;119.77;30.50;;;3.90;99.90;;;;;;5030248;28;20350;-68
2023/03/09 08:57:48;;;;;;;129.63;30.97;;;3.90;99.90;;;;;;5026957;28;20255;-68
2023/03/09 09:00:17;;;;;;;139.93;34.27;;;4.00;99.90;;;;;;5022685;28;20241;-68
2023/03/09 09:02:48;;;;;;;129.30;31.30;;;4.00;99.90;;;;;;5029786;28;20722;-68
2023/03/09 09:05:16;;;;;;;129.63;31.63;;;4.10;99.90;;;;;;5025565;28;20296;-68
2023/03/09 09:07:48;;;;;;;130.90;31.33;;;4.10;99.90;;;;;;5027454;28;20343;-67
2023/03/09 09:10:16;;;;;;;120.33;31.07;;;4.20;99.90;;;;;;5026375;28;20296;-68
2023/03/09 09:13:03;;;;;;;117.67;29.77;;;4.20;99.90;;;;;;5026184;28;20225;-68
2023/03/09 09:15:31;;;;;;;133.40;30.80;;;4.20;99.90;;;;;;5027545;28;20221;-68
2023/03/09 09:18:00;;;;;;;125.40;30.57;;;4.30;99.90;;;;;;5023422;28;20252;-68
2023/03/09 09:20:29;;;;;;;116.97;30.80;;;4.40;99.90;;;;;;5023616;28;20260;-67
2023/03/09 09:22:57;;;;;;;124.00;28.63;;;4.50;99.90;;;;;;5025621;28;20304;-68
2023/03/09 09:25:25;;;;;;;131.73;31.97;;;4.40;99.90;;;;;;5011286;28;20194;-67
2023/03/09 09:27:54;;;;;;;120.70;31.10;;;4.40;99.90;;;;;;5027810;28;20729;-68
2023/03/09 09:30:23;;;;;;;108.33;29.30;;;4.50;99.90;;;;;;5028412;28;20328;-68
2023/03/09 09:32:51;;;;;;;110.10;28.00;;;4.50;99.90;;;;;;5004182;28;20218;-68
2023/03/09 09:35:21;;;;;;;112.40;28.73;;;4.50;99.90;;;;;;5025658;28;20222;-68
2023/03/09 09:37:54;;;;;;;115.37;28.63;;;4.60;99.90;;;;;;5028570;28;20707;-67
2023/03/09 09:40:22;;;;;;;108.93;28.23;;;4.70;99.90;;;;;;5023167;28;20186;-67
2023/03/09 09:42:53;;;;;;;110.60;27.53;;;4.80;99.90;;;;;;5022773;28;20200;-68
2023/03/09 09:45:34;;;;;;;99.77;26.80;;;4.90;99.90;;;;;;5024123;28;20959;-68
2023/03/09 09:48:05;;;;;;;100.87;26.70;;;4.90;99.90;;;;;;5026076;28;20221;-68
2023/03/09 09:50:46;;;;;;;100.40;26.20;;;4.90;99.90;;;;;;5022595;28;20220;-68
2023/03/09 09:53:24;;;;;;;95.93;26.47;;;5.00;99.90;;;;;;5021766;28;20680;-68
2023/03/09 09:55:53;;;;;;;96.90;27.93;;;5.10;99.90;;;;;;5024622;28;20221;-68
2023/03/09 09:58:31;;;;;;;104.60;27.63;;;5.10;99.90;;;;;;5025956;28;20209;-68
2023/03/09 10:01:04;;;;;;;100.13;27.20;;;5.10;99.90;;;;;;5025431;28;20798;-68
2023/03/09 10:03:35;;;;;;;103.47;26.13;;;5.20;99.90;;;;;;5027827;28;20213;-68
2023/03/09 10:06:15;;;;;;;100.63;27.80;;;5.20;99.90;;;;;;5029428;28;20222;-68
2023/03/09 10:08:48;;;;;;;96.20;26.93;;;5.20;99.90;;;;;;5029069;28;20209;-68
2023/03/09 10:11:22;;;;;;;92.07;26.67;;;5.40;99.90;;;;;;5021372;28;20632;-68
2023/03/09 10:13:56;;;;;;;92.90;26.57;;;5.50;99.90;;;;;;5027108;28;20252;-67
2023/03/09 10:16:28;;;;;;;95.13;27.60;;;5.50;99.90;;;;;;5022725;28;20197;-66
2023/03/09 10:19:00;;;;;;;86.27;26.47;;;5.50;99.90;;;;;;5027128;28;20668;-68
2023/03/09 10:21:36;;;;;;;90.20;26.13;;;5.50;99.90;;;;;;5020724;28;20222;-68
2023/03/09 10:24:19;;;;;;;81.30;25.57;;;5.60;99.90;;;;;;5025299;28;20217;-68
2023/03/09 10:26:51;;;;;;;82.97;26.50;;;5.80;99.90;;;;;;5028418;28;20213;-68
2023/03/09 10:29:27;;;;;;;74.40;25.30;;;5.80;99.90;;;;;;5031042;28;20213;-68
2023/03/09 10:32:04;;;;;;;79.80;26.50;;;6.00;99.90;;;;;;5023378;28;20232;-68
2023/03/09 10:34:40;;;;;;;80.90;24.90;;;6.10;99.90;;;;;;5013533;28;20205;-67
2023/03/09 10:37:17;;;;;;;84.63;26.77;;;6.00;99.90;;;;;;5016957;28;20235;-68
2023/03/09 10:39:47;;;;;;;88.13;25.70;;;6.00;99.90;;;;;;5024720;28;20228;-68
2023/03/09 10:42:19;;;;;;;83.73;27.17;;;6.00;99.90;;;;;;5027895;28;20221;-68
2023/03/09 10:44:58;;;;;;;78.67;25.57;;;6.00;99.90;;;;;;5024057;28;20228;-68
2023/03/09 10:47:26;;;;;;;73.43;25.67;;;6.20;99.90;;;;;;5024193;28;20584;-68
2023/03/09 10:50:13;;;;;;;83.93;26.70;;;6.20;99.90;;;;;;5022964;28;20221;-68
2023/03/09 10:52:54;;;;;;;82.77;27.10;;;6.20;99.90;;;;;;5023146;28;20761;-68
2023/03/09 10:55:36;;;;;;;78.73;25.77;;;6.20;99.90;;;;;;5028065;28;20318;-68
2023/03/09 10:58:17;;;;;;;87.27;27.23;;;6.30;99.90;;;;;;5024644;28;20195;-68
2023/03/09 11:01:04;;;;;;;91.57;26.97;;;6.30;99.90;;;;;;5024331;28;20275;-68
2023/03/09 11:03:35;;;;;;;81.23;26.97;;;6.30;99.90;;;;;;5024189;28;20239;-68
2023/03/09 11:06:24;;;;;;;89.00;26.73;;;6.20;99.90;;;;;;5019256;28;20221;-68
2023/03/09 11:09:08;;;;;;;93.63;27.17;;;6.10;99.90;;;;;;5017865;28;20561;-68
2023/03/09 11:11:45;;;;;;;102.33;28.40;;;6.20;99.90;;;;;;5014765;28;22122;-68
2023/03/09 11:14:32;;;;;;;91.07;27.80;;;6.20;99.90;;;;;;5025292;28;20217;-68
2023/03/09 11:17:01;;;;;;;87.47;26.73;;;6.30;99.90;;;;;;5021464;28;20240;-68
2023/03/09 11:19:30;;;;;;;88.47;28.90;;;6.30;99.90;;;;;;5015438;28;20356;-68
2023/03/09 11:22:06;;;;;;;95.13;28.80;;;6.30;99.90;;;;;;5024754;28;20212;-68
2023/03/09 11:24:40;;;;;;;86.93;28.23;;;6.40;99.90;;;;;;5030638;28;20285;-68
2023/03/09 11:27:15;;;;;;;94.43;28.37;;;6.40;99.90;;;;;;5033986;28;20617;-68
2023/03/09 11:29:51;;;;;;;93.17;27.77;;;6.40;99.90;;;;;;5024740;28;20736;-68
2023/03/09 11:32:19;;;;;;;89.03;28.33;;;6.50;99.90;;;;;;5029295;28;20295;-68
2023/03/09 11:34:50;;;;;;;98.17;28.23;;;6.60;99.90;;;;;;5023504;28;20275;-68
2023/03/09 11:37:22;;;;;;;93.07;28.20;;;6.80;99.90;;;;;;5029543;28;20644;-68
2023/03/09 11:39:58;;;;;;;87.33;28.53;;;6.90;99.90;;;;;;5007482;28;20222;-69
2023/03/09 11:42:33;;;;;;;84.77;28.53;;;6.90;99.90;;;;;;5004359;28;20283;-67
2023/03/09 11:45:05;;;;;;;81.07;27.50;;;6.90;99.90;;;;;;5003411;28;20221;-68
2023/03/09 11:47:37;;;;;;;87.63;27.93;;;6.90;99.90;;;;;;5019226;28;20583;-68
2023/03/09 11:50:14;;;;;;;85.73;26.97;;;7.10;99.90;;;;;;5019787;28;20276;-69
2023/03/09 11:52:48;;;;;;;69.27;25.40;;;7.20;99.90;;;;;;4998852;28;20636;-68
2023/03/09 11:55:23;;;;;;;76.60;24.93;;;7.30;99.90;;;;;;4991922;28;20257;-68
2023/03/09 11:57:59;;;;;;;71.70;26.03;;;7.50;99.90;;;;;;5009237;28;20218;-68
2023/03/09 12:00:28;;;;;;;72.63;26.60;;;7.60;99.90;;;;;;5006761;28;20224;-68
2023/03/09 12:03:00;;;;;;;80.57;28.67;;;7.70;99.90;;;;;;5003673;28;20849;-68
2023/03/09 12:05:35;;;;;;;74.47;29.10;;;7.90;99.90;;;;;;5006564;28;20307;-68
2023/03/09 12:08:08;;;;;;;81.13;29.20;;;8.10;99.90;;;;;;5005869;28;20749;-68
2023/03/09 12:10:43;;;;;;;77.03;28.07;;;8.20;99.90;;;;;;5007017;28;20190;-68
2023/03/09 12:13:15;;;;;;;71.30;27.37;;;8.60;99.90;;;;;;5000197;28;20241;-68
2023/03/09 12:15:52;;;;;;;69.07;27.03;;;8.80;99.90;;;;;;5005189;28;20320;-68
2023/03/09 12:18:24;;;;;;;66.33;27.30;;;9.10;99.90;;;;;;5005517;28;20221;-69
2023/03/09 12:20:55;;;;;;;61.60;25.53;;;9.40;99.90;;;;;;5007550;28;20320;-68
2023/03/09 12:23:50;;;;;;;61.73;25.30;;;9.70;99.90;;;;;;5007250;28;20230;-69
2023/03/09 12:26:30;;;;;;;54.17;25.40;;;10.40;99.90;;;;;;5006626;28;20795;-69
2023/03/09 12:29:01;;;;;;;48.63;22.57;;;11.10;99.90;;;;;;5007722;28;20240;-69
2023/03/09 12:31:31;;;;;;;45.27;20.27;;;11.50;99.90;;;;;;5007334;28;20253;-68
2023/03/09 12:34:05;;;;;;;36.53;19.87;;;11.60;99.90;;;;;;5006373;28;20190;-69
2023/03/09 12:36:36;;;;;;;37.10;17.67;;;11.50;99.90;;;;;;5004692;28;20220;-69
2023/03/09 12:39:33;;;;;;;42.93;18.57;;;11.50;99.90;;;;;;5006228;28;20241;-69
2023/03/09 12:42:23;;;;;;;39.07;17.77;;;11.40;99.90;;;;;;5005632;28;20693;-68
2023/03/09 12:45:02;;;;;;;46.13;20.30;;;11.30;99.90;;;;;;5026981;28;20263;-68
2023/03/09 12:47:42;;;;;;;41.30;20.67;;;11.20;99.90;;;;;;5026519;28;20569;-69